createdAt,value
2018-12-16T00:02:57.170Z,54.17
2018-12-16T00:06:21.914Z,53.52
2018-12-16T00:09:46.635Z,53.83
2018-12-16T00:13:11.300Z,53.75
2018-12-16T00:16:35.986Z,53.39
2018-12-16T00:20:00.697Z,53.36
2018-12-16T00:23:25.417Z,53.66
2018-12-16T00:27:09.009Z,54.28
2018-12-16T00:30:33.865Z,54.24
2018-12-16T00:33:58.569Z,53.72
2018-12-16T00:37:23.340Z,53.39
2018-12-16T00:40:48.072Z,54.62
2018-12-16T00:44:12.833Z,54.00
2018-12-16T00:47:37.667Z,53.99
2018-12-16T00:51:02.431Z,54.64
2018-12-16T00:54:27.208Z,54.67
2018-12-16T00:57:51.915Z,54.82
2018-12-16T01:01:16.679Z,54.98
2018-12-16T01:04:41.607Z,54.73
2018-12-16T01:08:06.270Z,53.95
2018-12-16T01:11:30.969Z,55.22
2018-12-16T01:14:55.699Z,54.71
2018-12-16T01:18:20.443Z,53.91
2018-12-16T01:21:45.185Z,54.98
2018-12-16T01:25:09.930Z,54.38
2018-12-16T01:28:34.722Z,54.42
2018-12-16T01:31:59.381Z,54.68
2018-12-16T01:35:24.015Z,54.96
2018-12-16T01:38:48.692Z,55.04
2018-12-16T01:42:13.374Z,54.08
2018-12-16T01:45:38.070Z,54.12
2018-12-16T01:49:02.805Z,55.27
2018-12-16T01:52:27.490Z,56.24
2018-12-16T01:55:52.200Z,58.94
2018-12-16T01:59:16.884Z,61.15
2018-12-16T02:02:41.606Z,61.14
2018-12-16T02:06:06.477Z,61.79
2018-12-16T02:09:31.295Z,63.59
2018-12-16T02:12:56.108Z,64.45
2018-12-16T02:16:20.826Z,66.78
2018-12-16T02:19:45.625Z,66.17
2018-12-16T02:23:10.340Z,65.00
2018-12-16T02:26:35.106Z,64.62
2018-12-16T02:29:59.803Z,64.22
2018-12-16T02:33:24.530Z,64.20
2018-12-16T02:36:49.219Z,64.63
2018-12-16T02:40:14.175Z,63.78
2018-12-16T02:43:38.855Z,63.92
2018-12-16T02:47:03.658Z,65.41
2018-12-16T02:50:28.434Z,65.68
2018-12-16T02:53:59.795Z,65.79
2018-12-16T02:57:24.547Z,66.53
2018-12-16T03:00:49.340Z,67.28
2018-12-16T03:04:14.024Z,66.48
2018-12-16T03:07:38.754Z,67.92
2018-12-16T03:11:03.575Z,68.19
2018-12-16T03:14:28.362Z,68.35
2018-12-16T03:17:53.630Z,70.50
2018-12-16T03:21:18.334Z,69.85
2018-12-16T03:24:43.041Z,70.92
2018-12-16T03:28:07.707Z,70.96
2018-12-16T03:31:32.394Z,70.78
2018-12-16T03:34:57.166Z,71.13
2018-12-16T03:38:21.822Z,70.49
2018-12-16T03:41:46.549Z,70.86
2018-12-16T03:45:11.406Z,69.99
2018-12-16T03:48:36.131Z,70.30
2018-12-16T03:52:00.907Z,70.96
2018-12-16T03:55:25.667Z,70.57
2018-12-16T03:59:07.148Z,70.12
2018-12-16T04:02:31.821Z,70.43
2018-12-16T04:05:56.499Z,70.60
2018-12-16T04:09:21.242Z,71.15
2018-12-16T04:12:45.910Z,70.38
2018-12-16T04:16:10.650Z,70.56
2018-12-16T04:19:35.403Z,70.13
2018-12-16T04:23:00.039Z,70.49
2018-12-16T04:26:24.744Z,70.06
2018-12-16T04:29:49.485Z,71.30
2018-12-16T04:33:14.155Z,71.38
2018-12-16T04:36:38.864Z,72.09
2018-12-16T04:40:03.700Z,73.15
2018-12-16T04:43:28.474Z,73.97
2018-12-16T04:46:53.183Z,74.21
2018-12-16T04:50:17.870Z,73.42
2018-12-16T04:53:42.607Z,74.07
2018-12-16T04:57:07.301Z,73.70
2018-12-16T05:00:31.947Z,73.75
2018-12-16T05:03:56.663Z,73.25
2018-12-16T05:07:21.318Z,72.80
2018-12-16T05:10:45.984Z,73.05
2018-12-16T05:14:10.717Z,74.30
2018-12-16T05:17:35.341Z,73.22
2018-12-16T05:21:00.012Z,73.31
2018-12-16T05:24:24.748Z,73.18
2018-12-16T05:27:49.555Z,73.46
2018-12-16T05:31:14.245Z,73.53
2018-12-16T05:34:38.931Z,73.06
2018-12-16T05:38:03.634Z,72.71
2018-12-16T05:41:28.320Z,73.50
2018-12-16T05:44:53.105Z,72.67
2018-12-16T05:48:17.735Z,72.02
2018-12-16T05:51:42.414Z,72.03
2018-12-16T05:55:10.515Z,71.41
2018-12-16T05:58:35.188Z,71.90
2018-12-16T06:01:59.874Z,72.31
2018-12-16T06:05:24.553Z,71.43
2018-12-16T06:08:49.205Z,71.33
2018-12-16T06:12:13.838Z,71.28
2018-12-16T06:15:38.564Z,71.83
2018-12-16T06:19:03.218Z,71.69
2018-12-16T06:22:27.913Z,70.89
2018-12-16T06:25:52.527Z,71.57
2018-12-16T06:29:17.261Z,71.50
2018-12-16T06:32:41.935Z,71.07
2018-12-16T06:36:06.646Z,70.98
2018-12-16T06:39:31.264Z,70.36
2018-12-16T06:42:56.047Z,70.59
2018-12-16T06:46:21.076Z,71.07
2018-12-16T06:49:45.687Z,71.16
2018-12-16T06:53:10.379Z,70.94
2018-12-16T06:56:35.204Z,70.33
2018-12-16T07:00:00.185Z,71.53
2018-12-16T07:03:24.883Z,70.33
2018-12-16T07:06:49.574Z,70.67
2018-12-16T07:10:14.384Z,70.49
2018-12-16T07:13:39.118Z,69.76
2018-12-16T07:17:03.834Z,70.45
2018-12-16T07:20:28.525Z,69.44
2018-12-16T07:23:53.284Z,70.51
2018-12-16T07:27:18.158Z,70.89
2018-12-16T07:30:42.919Z,70.18
2018-12-16T07:34:07.574Z,71.45
2018-12-16T07:37:32.416Z,70.73
2018-12-16T07:40:57.276Z,69.85
2018-12-16T07:44:21.973Z,70.22
2018-12-16T07:47:46.921Z,70.32
2018-12-16T07:51:11.602Z,70.94
2018-12-16T07:54:36.346Z,70.88
2018-12-16T07:58:01.079Z,70.47
2018-12-16T08:01:25.833Z,70.15
2018-12-16T08:04:50.567Z,69.71
2018-12-16T08:08:15.412Z,70.14
2018-12-16T08:11:40.055Z,70.04
2018-12-16T08:15:04.969Z,69.30
2018-12-16T08:18:29.664Z,68.94
2018-12-16T08:21:54.404Z,69.14
2018-12-16T08:25:19.049Z,68.76
2018-12-16T08:28:43.696Z,69.09
2018-12-16T08:32:08.415Z,71.06
2018-12-16T08:35:33.190Z,70.77
2018-12-16T08:38:57.947Z,70.16
2018-12-16T08:42:22.631Z,70.46
2018-12-16T08:45:47.301Z,70.89
2018-12-16T08:49:11.939Z,70.99
2018-12-16T08:56:11.554Z,70.88
2018-12-16T08:59:36.298Z,70.73
2018-12-16T09:03:01.058Z,71.04
2018-12-16T09:06:25.881Z,70.42
2018-12-16T09:09:50.534Z,70.22
2018-12-16T09:13:15.204Z,70.94
2018-12-16T09:16:39.870Z,70.24
2018-12-16T09:20:04.962Z,70.33
2018-12-16T09:23:29.618Z,70.92
2018-12-16T09:26:54.275Z,70.54
2018-12-16T09:30:18.948Z,69.94
2018-12-16T09:33:43.714Z,70.54
2018-12-16T09:37:08.386Z,70.14
2018-12-16T09:40:33.143Z,70.14
2018-12-16T09:43:57.792Z,70.87
2018-12-16T09:47:22.956Z,71.62
2018-12-16T09:50:47.675Z,70.37
2018-12-16T09:54:12.476Z,69.98
2018-12-16T09:57:37.210Z,69.89
2018-12-16T10:01:01.946Z,70.50
2018-12-16T10:04:26.602Z,70.68
2018-12-16T10:07:51.260Z,71.13
2018-12-16T10:11:16.051Z,72.04
2018-12-16T10:14:40.885Z,71.50
2018-12-16T10:18:05.813Z,70.95
2018-12-16T10:21:30.620Z,71.72
2018-12-16T10:24:55.246Z,71.84
2018-12-16T10:28:19.885Z,71.64
2018-12-16T10:31:45.915Z,71.37
2018-12-16T10:35:10.721Z,71.85
2018-12-16T10:38:35.459Z,72.21
2018-12-16T10:42:00.105Z,72.90
2018-12-16T10:45:24.795Z,73.03
2018-12-16T10:48:49.473Z,74.35
2018-12-16T10:52:14.139Z,73.52
2018-12-16T10:55:39.005Z,72.33
2018-12-16T10:59:03.706Z,72.14
2018-12-16T11:02:28.396Z,72.04
2018-12-16T11:05:53.056Z,72.49
2018-12-16T11:09:17.810Z,72.83
2018-12-16T11:12:42.883Z,72.50
2018-12-16T11:16:07.556Z,72.80
2018-12-16T11:19:32.281Z,71.00
2018-12-16T11:22:56.938Z,71.40
2018-12-16T11:26:21.600Z,71.43
2018-12-16T11:29:47.145Z,71.49
2018-12-16T11:33:11.900Z,71.48
2018-12-16T11:36:36.594Z,71.13
2018-12-16T11:40:01.280Z,71.24
2018-12-16T11:43:26.035Z,71.19
2018-12-16T11:46:50.703Z,71.31
2018-12-16T11:50:15.348Z,72.81
2018-12-16T11:53:40.026Z,72.65
2018-12-16T11:57:04.906Z,73.06
2018-12-16T12:00:29.540Z,73.70
2018-12-16T12:03:54.201Z,73.50
2018-12-16T12:07:19.078Z,73.28
2018-12-16T12:10:43.787Z,73.83
2018-12-16T12:14:08.460Z,73.92
2018-12-16T12:17:33.098Z,71.96
2018-12-16T12:20:57.749Z,72.42
2018-12-16T12:24:22.366Z,73.11
2018-12-16T12:27:47.113Z,72.90
2018-12-16T12:31:11.785Z,74.20
2018-12-16T12:34:36.443Z,73.79
2018-12-16T12:38:01.120Z,73.17
2018-12-16T12:41:25.769Z,73.43
2018-12-16T12:44:50.509Z,73.76
2018-12-16T12:48:15.191Z,73.45
2018-12-16T12:51:39.923Z,74.13
2018-12-16T12:55:05.034Z,73.61
2018-12-16T12:58:29.700Z,73.99
2018-12-16T13:01:54.359Z,72.88
2018-12-16T13:05:18.994Z,73.31
2018-12-16T13:08:43.634Z,74.02
2018-12-16T13:12:08.306Z,74.72
2018-12-16T13:15:33.010Z,73.79
2018-12-16T13:18:57.657Z,73.63
2018-12-16T13:22:22.330Z,73.35
2018-12-16T13:26:01.977Z,73.34
2018-12-16T13:29:26.792Z,73.38
2018-12-16T13:37:03.230Z,72.79
2018-12-16T13:40:28.023Z,72.81
2018-12-16T13:43:52.746Z,72.93
2018-12-16T13:47:17.483Z,72.88
2018-12-16T13:50:42.312Z,72.36
2018-12-16T13:54:07.092Z,71.82
2018-12-16T13:57:38.968Z,72.28
2018-12-16T14:01:03.734Z,72.86
2018-12-16T14:04:28.448Z,71.81
2018-12-16T14:07:53.133Z,72.19
2018-12-16T14:11:18.788Z,72.14
2018-12-16T14:14:45.114Z,71.22
2018-12-16T14:18:10.135Z,72.34
2018-12-16T14:21:34.801Z,71.72
2018-12-16T14:24:59.526Z,71.66
2018-12-16T14:28:24.220Z,72.87
2018-12-16T14:31:48.866Z,72.17
2018-12-16T14:35:14.286Z,72.26
2018-12-16T14:38:38.966Z,72.47
2018-12-16T14:42:03.742Z,72.63
2018-12-16T14:45:28.426Z,71.43
2018-12-16T14:48:53.089Z,72.78
2018-12-16T14:52:17.778Z,72.95
2018-12-16T14:55:42.445Z,72.29
2018-12-16T14:59:07.166Z,71.58
2018-12-16T15:02:31.844Z,72.23
2018-12-16T15:05:56.564Z,72.16
2018-12-16T15:09:21.858Z,72.97
2018-12-16T15:12:46.611Z,73.19
2018-12-16T15:16:11.256Z,73.01
2018-12-16T15:19:35.933Z,72.98
2018-12-16T15:23:00.620Z,73.75
2018-12-16T15:26:25.252Z,73.70
2018-12-16T15:29:49.933Z,73.65
2018-12-16T15:33:14.632Z,73.84
2018-12-16T15:36:39.334Z,73.61
2018-12-16T15:40:04.173Z,74.09
2018-12-16T15:43:28.830Z,73.58
2018-12-16T15:46:53.479Z,73.80
2018-12-16T15:50:18.251Z,74.37
2018-12-16T15:53:42.934Z,74.21
2018-12-16T15:57:07.642Z,74.11
2018-12-16T16:00:32.305Z,74.00
2018-12-16T16:03:57.016Z,73.67
2018-12-16T16:07:21.725Z,74.23
2018-12-16T16:10:46.415Z,73.05
2018-12-16T16:14:11.120Z,73.81
2018-12-16T16:17:35.794Z,74.28
2018-12-16T16:21:00.421Z,73.50
2018-12-16T16:24:25.236Z,73.60
2018-12-16T16:27:49.979Z,73.88
2018-12-16T16:31:14.698Z,73.31
2018-12-16T16:34:39.402Z,73.12
2018-12-16T16:38:04.635Z,73.92
2018-12-16T16:41:29.265Z,73.91
2018-12-16T16:44:53.999Z,74.05
2018-12-16T16:48:18.736Z,73.93
2018-12-16T16:51:43.470Z,73.89
2018-12-16T16:55:08.542Z,74.12
2018-12-16T16:58:33.225Z,74.81
2018-12-16T17:01:57.911Z,74.68
2018-12-16T17:05:22.583Z,73.55
2018-12-16T17:08:47.291Z,73.32
2018-12-16T17:12:12.009Z,73.24
2018-12-16T17:15:36.698Z,73.69
2018-12-16T17:19:02.850Z,73.42
2018-12-16T17:22:27.588Z,73.62
2018-12-16T17:25:52.262Z,73.58
2018-12-16T17:29:16.961Z,73.62
2018-12-16T17:32:41.659Z,73.71
2018-12-16T17:36:06.400Z,73.96
2018-12-16T17:39:31.087Z,73.52
2018-12-16T17:42:55.747Z,74.12
2018-12-16T17:46:20.405Z,74.04
2018-12-16T17:49:45.128Z,74.27
2018-12-16T17:53:09.872Z,73.24
2018-12-16T17:56:37.215Z,74.18
2018-12-16T18:00:01.249Z,73.42
2018-12-16T18:03:25.969Z,72.84
2018-12-16T18:06:50.663Z,72.98
2018-12-16T18:10:15.366Z,72.65
2018-12-16T18:13:40.107Z,72.97
2018-12-16T18:17:06.139Z,73.26
2018-12-16T18:20:30.844Z,73.76
2018-12-16T18:23:55.532Z,73.23
2018-12-16T18:27:20.273Z,73.62
2018-12-16T18:30:44.944Z,73.94
2018-12-16T18:34:09.895Z,73.06
2018-12-16T18:37:34.560Z,73.23
2018-12-16T18:40:59.243Z,73.87
2018-12-16T18:44:24.083Z,73.49
2018-12-16T18:47:48.764Z,72.47
2018-12-16T18:51:13.527Z,72.89
2018-12-16T18:54:38.315Z,73.67
2018-12-16T18:58:03.151Z,73.30
2018-12-16T19:01:27.881Z,73.57
2018-12-16T19:05:16.493Z,73.51
2018-12-16T19:09:00.148Z,73.73
2018-12-16T19:12:25.195Z,73.60
2018-12-16T19:20:05.544Z,73.83
2018-12-16T19:23:30.255Z,74.06
2018-12-16T19:31:00.174Z,72.68
2018-12-16T19:34:28.613Z,73.34
2018-12-16T19:37:53.445Z,72.81
2018-12-16T19:41:18.117Z,73.00
2018-12-16T19:44:42.919Z,72.96
2018-12-16T19:48:07.699Z,72.70
2018-12-16T19:51:32.422Z,73.26
2018-12-16T19:54:57.794Z,72.85
2018-12-16T19:58:22.892Z,73.32
2018-12-16T20:01:47.669Z,72.60
2018-12-16T20:05:17.585Z,72.40
2018-12-16T20:08:46.564Z,72.95
2018-12-16T20:12:11.331Z,72.73
2018-12-16T20:15:35.981Z,73.01
2018-12-16T20:19:00.644Z,72.45
2018-12-16T20:22:25.304Z,72.35
2018-12-16T20:25:49.987Z,72.77
2018-12-16T20:29:14.749Z,72.91
2018-12-16T20:32:39.562Z,72.44
2018-12-16T20:36:04.414Z,73.47
2018-12-16T20:39:29.076Z,72.91
2018-12-16T20:42:54.319Z,72.47
2018-12-16T20:46:19.153Z,73.04
2018-12-16T20:49:43.777Z,73.39
2018-12-16T20:53:08.787Z,73.41
2018-12-16T20:56:33.475Z,73.48
2018-12-16T20:59:58.157Z,73.37
2018-12-16T21:03:22.816Z,73.53
2018-12-16T21:06:47.480Z,73.33
2018-12-16T21:10:12.330Z,72.70
2018-12-16T21:13:42.077Z,74.06
2018-12-16T21:17:11.948Z,73.15
2018-12-16T21:20:36.653Z,73.61
2018-12-16T21:24:01.496Z,74.76
2018-12-16T21:27:26.355Z,73.94
2018-12-16T21:30:51.176Z,73.75
2018-12-16T21:34:15.842Z,73.69
2018-12-16T21:37:40.686Z,73.64
2018-12-16T21:41:05.411Z,73.66
2018-12-16T21:44:30.061Z,73.87
2018-12-16T21:47:54.760Z,73.24
2018-12-16T21:51:19.467Z,73.81
2018-12-16T21:54:47.005Z,73.16
2018-12-16T21:58:11.718Z,72.99
2018-12-16T22:01:36.685Z,73.05
2018-12-16T22:05:01.719Z,73.62
2018-12-16T22:08:26.531Z,73.45
2018-12-16T22:11:54.454Z,73.18
2018-12-16T22:15:20.280Z,73.05
2018-12-16T22:18:46.945Z,73.08
2018-12-16T22:22:12.419Z,73.57
2018-12-16T22:25:37.667Z,74.21
2018-12-16T22:29:02.720Z,74.41
2018-12-16T22:32:27.960Z,74.96
2018-12-16T22:35:52.767Z,74.18
2018-12-16T22:39:17.448Z,74.01
2018-12-16T22:42:42.167Z,75.38
2018-12-16T22:46:06.912Z,74.89
2018-12-16T22:49:31.774Z,74.44
2018-12-16T22:52:56.520Z,73.89
2018-12-16T22:56:21.200Z,73.91
2018-12-16T22:59:45.871Z,74.38
2018-12-16T23:03:10.527Z,75.05
2018-12-16T23:06:35.252Z,73.93
2018-12-16T23:09:59.954Z,74.89
2018-12-16T23:13:24.659Z,74.96
2018-12-16T23:16:49.345Z,74.47
2018-12-16T23:20:19.760Z,75.51
2018-12-16T23:23:44.554Z,75.16
2018-12-16T23:27:09.204Z,75.51
2018-12-16T23:30:33.878Z,75.68
2018-12-16T23:33:58.529Z,75.63
2018-12-16T23:37:23.201Z,74.64
2018-12-16T23:40:47.865Z,75.13
2018-12-16T23:44:12.469Z,75.48
2018-12-16T23:47:37.166Z,74.88
2018-12-16T23:51:01.815Z,75.52
2018-12-16T23:54:26.501Z,75.52
2018-12-16T23:57:51.165Z,75.71
